createdAt,value
2023-09-17T00:00:31.332Z,8.70
2023-09-17T00:03:00.687Z,8.80
2023-09-17T00:05:28.397Z,9.60
2023-09-17T00:07:56.154Z,8.40
2023-09-17T00:10:24.161Z,8.60
2023-09-17T00:12:56.597Z,8.90
2023-09-17T00:15:24.465Z,9.10
2023-09-17T00:17:53.063Z,9.50
2023-09-17T00:20:20.810Z,8.70
2023-09-17T00:22:48.524Z,9.00
2023-09-17T00:25:16.273Z,8.80
2023-09-17T00:27:43.997Z,10.20
2023-09-17T00:30:13.107Z,9.80
2023-09-17T00:32:41.355Z,9.20
2023-09-17T00:35:09.655Z,8.70
2023-09-17T00:37:37.334Z,8.80
2023-09-17T00:40:12.620Z,9.90
2023-09-17T00:42:42.050Z,9.60
2023-09-17T00:45:11.983Z,8.90
2023-09-17T00:47:39.832Z,9.00
2023-09-17T00:50:08.209Z,9.40
2023-09-17T00:52:35.802Z,9.90
2023-09-17T00:55:04.038Z,8.90
2023-09-17T00:57:32.417Z,8.50
2023-09-17T01:00:01.108Z,8.30
2023-09-17T01:02:29.566Z,10.10
2023-09-17T01:04:57.357Z,9.90
2023-09-17T01:07:25.128Z,9.80
2023-09-17T01:09:52.721Z,10.20
2023-09-17T01:12:21.458Z,8.10
2023-09-17T01:14:49.117Z,10.00
2023-09-17T01:17:16.785Z,9.50
2023-09-17T01:19:44.834Z,9.00
2023-09-17T01:22:19.114Z,8.60
2023-09-17T01:25:13.377Z,9.00
2023-09-17T01:27:41.019Z,10.00
2023-09-17T01:30:17.455Z,10.30
2023-09-17T01:32:45.373Z,9.90
2023-09-17T01:35:17.314Z,9.70
2023-09-17T01:37:48.611Z,9.90
2023-09-17T01:40:17.165Z,10.10
2023-09-17T01:42:51.567Z,10.70
2023-09-17T01:45:19.639Z,9.90
2023-09-17T01:47:49.343Z,8.70
2023-09-17T01:50:18.350Z,9.00
2023-09-17T01:52:46.052Z,9.30
2023-09-17T01:55:16.658Z,9.80
2023-09-17T01:57:44.291Z,9.60
2023-09-17T02:00:19.751Z,9.90
2023-09-17T02:02:50.270Z,10.00
2023-09-17T02:05:18.651Z,9.40
2023-09-17T02:07:46.407Z,8.90
2023-09-17T02:10:14.819Z,10.40
2023-09-17T02:12:42.542Z,10.70
2023-09-17T02:15:13.065Z,9.00
2023-09-17T02:17:41.459Z,10.90
2023-09-17T02:20:12.711Z,10.00
2023-09-17T02:22:40.836Z,9.80
2023-09-17T02:25:11.492Z,9.20
2023-09-17T02:27:39.769Z,10.20
2023-09-17T02:30:09.183Z,9.40
2023-09-17T02:32:39.081Z,11.00
2023-09-17T02:35:08.395Z,10.40
2023-09-17T02:37:36.193Z,10.90
2023-09-17T02:40:05.973Z,9.40
2023-09-17T02:42:33.713Z,9.80
2023-09-17T02:45:03.023Z,9.60
2023-09-17T02:47:30.759Z,10.80
2023-09-17T02:49:58.658Z,9.90
2023-09-17T02:52:27.272Z,9.60
2023-09-17T02:54:58.277Z,8.60
2023-09-17T02:57:25.935Z,10.40
2023-09-17T02:59:53.606Z,10.20
2023-09-17T03:02:21.867Z,10.30
2023-09-17T03:04:52.739Z,11.70
2023-09-17T03:07:20.618Z,10.60
2023-09-17T03:09:48.345Z,10.60
2023-09-17T03:12:15.995Z,10.00
2023-09-17T03:14:43.968Z,11.00
2023-09-17T03:17:11.988Z,9.50
2023-09-17T03:19:40.324Z,11.00
2023-09-17T03:22:07.968Z,11.40
2023-09-17T03:24:36.252Z,10.00
2023-09-17T03:27:04.423Z,10.70
2023-09-17T03:29:32.124Z,11.60
2023-09-17T03:32:00.087Z,10.70
2023-09-17T03:34:27.954Z,11.30
2023-09-17T03:36:55.585Z,10.40
2023-09-17T03:39:23.667Z,9.70
2023-09-17T03:41:51.310Z,11.10
2023-09-17T03:44:18.970Z,10.40
2023-09-17T03:46:46.901Z,11.60
2023-09-17T03:49:15.009Z,11.90
2023-09-17T03:51:42.668Z,11.40
2023-09-17T03:54:10.329Z,10.00
2023-09-17T03:56:37.998Z,10.20
2023-09-17T03:59:06.264Z,11.30
2023-09-17T04:01:34.016Z,11.10
2023-09-17T04:04:01.948Z,11.00
2023-09-17T04:06:30.890Z,11.10
2023-09-17T04:08:58.560Z,12.10
2023-09-17T04:11:29.693Z,9.60
2023-09-17T04:13:57.278Z,9.00
2023-09-17T04:16:25.032Z,9.40
2023-09-17T04:18:52.981Z,8.90
2023-09-17T04:21:21.467Z,9.40
2023-09-17T04:23:49.401Z,8.70
2023-09-17T04:26:17.605Z,9.20
2023-09-17T04:28:47.566Z,9.00
2023-09-17T04:31:15.284Z,9.00
2023-09-17T04:33:42.952Z,8.90
2023-09-17T04:36:10.604Z,9.00
2023-09-17T04:38:38.270Z,10.50
2023-09-17T04:41:06.648Z,10.60
2023-09-17T04:43:35.396Z,10.80
2023-09-17T04:46:03.217Z,9.60
2023-09-17T04:48:33.632Z,10.90
2023-09-17T04:51:01.186Z,10.20
2023-09-17T04:53:28.746Z,11.00
2023-09-17T04:55:56.457Z,10.60
2023-09-17T04:58:28.998Z,10.70
2023-09-17T05:00:56.599Z,10.30
2023-09-17T05:03:24.829Z,11.20
2023-09-17T05:05:52.992Z,10.70
2023-09-17T05:08:20.813Z,10.30
2023-09-17T05:10:50.017Z,10.50
2023-09-17T05:13:19.269Z,11.00
2023-09-17T05:15:47.471Z,11.20
2023-09-17T05:18:15.189Z,11.20
2023-09-17T05:20:45.911Z,11.60
2023-09-17T05:23:14.210Z,11.50
2023-09-17T05:25:42.196Z,12.20
2023-09-17T05:28:11.377Z,13.00
2023-09-17T05:30:39.262Z,12.60
2023-09-17T05:33:07.758Z,12.80
2023-09-17T05:35:38.346Z,11.30
2023-09-17T05:38:07.026Z,11.50
2023-09-17T05:40:35.650Z,10.80
2023-09-17T05:43:03.896Z,12.00
2023-09-17T05:45:32.128Z,12.50
2023-09-17T05:48:00.434Z,13.60
2023-09-17T05:50:28.326Z,11.60
2023-09-17T05:52:56.089Z,11.40
2023-09-17T05:55:24.151Z,11.20
2023-09-17T05:57:51.912Z,11.50
2023-09-17T06:00:21.194Z,11.50
2023-09-17T06:02:48.924Z,13.10
2023-09-17T06:05:17.958Z,12.20
2023-09-17T06:07:45.828Z,11.40
2023-09-17T06:10:14.314Z,10.60
2023-09-17T06:12:42.569Z,11.60
2023-09-17T06:15:10.776Z,11.10
2023-09-17T06:17:39.478Z,11.80
2023-09-17T06:20:08.339Z,11.10
2023-09-17T06:22:36.011Z,11.20
2023-09-17T06:25:05.233Z,10.80
2023-09-17T06:27:33.044Z,10.70
2023-09-17T06:30:00.884Z,11.10
2023-09-17T06:32:29.655Z,10.90
2023-09-17T06:34:57.534Z,10.60
2023-09-17T06:37:25.397Z,10.90
2023-09-17T06:39:53.291Z,11.20
2023-09-17T06:42:21.065Z,11.00
2023-09-17T06:44:49.230Z,11.90
2023-09-17T06:47:17.404Z,10.90
2023-09-17T06:49:45.200Z,10.60
2023-09-17T06:52:12.930Z,10.60
2023-09-17T06:54:40.512Z,11.10
2023-09-17T06:57:08.865Z,11.10
2023-09-17T06:59:36.634Z,11.20
2023-09-17T07:02:04.302Z,10.50
2023-09-17T07:04:32.011Z,9.70
2023-09-17T07:07:02.164Z,10.30
2023-09-17T07:09:30.346Z,10.20
2023-09-17T07:11:58.117Z,9.70
2023-09-17T07:14:25.820Z,9.80
2023-09-17T07:16:53.501Z,10.20
2023-09-17T07:19:21.510Z,9.80
2023-09-17T07:21:49.267Z,10.00
2023-09-17T07:24:17.030Z,9.70
2023-09-17T07:26:45.408Z,10.10
2023-09-17T07:29:13.081Z,10.10
2023-09-17T07:31:42.489Z,9.10
2023-09-17T07:34:10.133Z,8.90
2023-09-17T07:36:37.804Z,9.30
2023-09-17T07:39:05.655Z,10.00
2023-09-17T07:41:33.327Z,9.40
2023-09-17T07:44:01.132Z,10.00
2023-09-17T07:46:28.872Z,9.90
2023-09-17T07:48:56.611Z,10.40
2023-09-17T07:51:24.275Z,9.10
2023-09-17T07:53:52.568Z,10.00
2023-09-17T07:56:21.592Z,9.80
2023-09-17T07:58:51.497Z,8.60
2023-09-17T08:01:19.441Z,8.60
2023-09-17T08:03:47.292Z,8.90
2023-09-17T08:06:15.462Z,8.30
2023-09-17T08:08:47.302Z,7.60
2023-09-17T08:11:17.856Z,8.20
2023-09-17T08:13:45.593Z,7.90
2023-09-17T08:16:13.357Z,7.20
2023-09-17T08:18:41.137Z,7.70
2023-09-17T08:21:08.799Z,7.90
2023-09-17T08:23:36.680Z,7.50
2023-09-17T08:26:06.098Z,8.60
2023-09-17T08:28:35.484Z,7.70
2023-09-17T08:31:04.091Z,7.70
2023-09-17T08:33:31.812Z,7.20
2023-09-17T08:35:59.376Z,6.40
2023-09-17T08:38:27.981Z,5.50
2023-09-17T08:40:55.642Z,5.50
2023-09-17T08:43:24.200Z,5.60
2023-09-17T08:45:52.117Z,5.90
2023-09-17T08:48:19.934Z,5.60
2023-09-17T08:50:50.512Z,6.40
2023-09-17T08:53:21.241Z,5.90
2023-09-17T08:55:49.500Z,5.60
2023-09-17T08:58:17.414Z,6.00
2023-09-17T09:00:49.972Z,6.10
2023-09-17T09:03:20.193Z,5.50
2023-09-17T09:05:49.233Z,5.70
2023-09-17T09:08:17.405Z,5.50
2023-09-17T09:10:45.100Z,5.30
2023-09-17T09:13:12.832Z,4.10
2023-09-17T09:15:42.216Z,4.30
2023-09-17T09:18:10.492Z,4.10
2023-09-17T09:20:38.897Z,3.50
2023-09-17T09:23:07.716Z,3.80
2023-09-17T09:25:35.783Z,4.00
2023-09-17T09:28:04.343Z,4.10
2023-09-17T09:30:32.084Z,4.50
2023-09-17T09:33:00.609Z,4.20
2023-09-17T09:35:28.949Z,5.40
2023-09-17T09:37:56.652Z,4.70
2023-09-17T09:40:25.911Z,8.40
2023-09-17T09:42:53.784Z,4.70
2023-09-17T09:45:21.739Z,4.70
2023-09-17T09:47:50.529Z,4.40
2023-09-17T09:50:25.770Z,4.10
2023-09-17T09:52:54.837Z,4.00
2023-09-17T09:55:25.282Z,6.20
2023-09-17T09:57:53.460Z,5.60
2023-09-17T10:00:30.789Z,4.30
2023-09-17T10:03:00.508Z,4.60
2023-09-17T10:05:35.731Z,4.00
2023-09-17T10:08:08.388Z,3.50
2023-09-17T10:10:40.073Z,4.30
2023-09-17T10:13:08.716Z,6.20
2023-09-17T10:15:37.785Z,4.20
2023-09-17T10:18:06.497Z,4.00
2023-09-17T10:20:34.161Z,7.10
2023-09-17T10:23:02.387Z,8.10
2023-09-17T10:25:30.552Z,12.80
2023-09-17T10:27:58.168Z,4.90
2023-09-17T10:30:25.828Z,5.00
2023-09-17T10:32:53.495Z,9.20
2023-09-17T10:36:23.712Z,3.60
2023-09-17T10:38:53.704Z,4.40
2023-09-17T10:41:21.389Z,4.40
2023-09-17T10:43:49.077Z,4.20
2023-09-17T10:46:16.736Z,4.10
2023-09-17T10:48:44.679Z,4.60
2023-09-17T10:51:13.471Z,5.40
2023-09-17T10:53:41.698Z,6.90
2023-09-17T10:56:10.535Z,10.30
2023-09-17T10:58:52.194Z,6.90
2023-09-17T11:01:26.200Z,5.20
2023-09-17T11:03:59.882Z,5.40
2023-09-17T11:06:28.784Z,5.70
2023-09-17T11:08:57.639Z,4.80
2023-09-17T11:11:26.208Z,5.00
2023-09-17T11:13:54.905Z,5.20
2023-09-17T11:16:26.649Z,4.50
2023-09-17T11:19:22.087Z,5.20
2023-09-17T11:21:51.063Z,3.70
2023-09-17T11:24:20.605Z,5.50
2023-09-17T11:26:49.331Z,7.30
2023-09-17T11:29:17.230Z,5.30
2023-09-17T11:31:54.919Z,4.90
2023-09-17T11:34:22.769Z,4.20
2023-09-17T11:36:51.959Z,3.70
2023-09-17T11:39:22.906Z,3.50
2023-09-17T11:41:56.404Z,4.10
2023-09-17T11:44:50.478Z,3.70
2023-09-17T11:47:18.879Z,4.90
2023-09-17T11:49:48.285Z,3.90
2023-09-17T11:52:16.739Z,3.70
2023-09-17T11:54:52.551Z,4.90
2023-09-17T11:57:27.117Z,3.40
2023-09-17T11:59:59.701Z,3.90
2023-09-17T12:02:30.747Z,3.70
2023-09-17T12:05:00.805Z,3.90
2023-09-17T12:07:35.927Z,4.10
2023-09-17T12:10:07.478Z,4.20
2023-09-17T12:12:38.476Z,9.00
2023-09-17T12:15:07.927Z,5.20
2023-09-17T12:17:43.942Z,3.70
2023-09-17T12:21:08.635Z,3.60
2023-09-17T12:24:06.623Z,4.10
2023-09-17T12:27:31.094Z,4.70
2023-09-17T12:29:59.273Z,3.50
2023-09-17T12:32:29.269Z,3.70
2023-09-17T12:34:58.112Z,3.40
2023-09-17T12:37:29.228Z,3.80
2023-09-17T12:39:58.031Z,4.00
2023-09-17T12:42:26.183Z,5.80
2023-09-17T12:44:56.805Z,5.50
2023-09-17T12:47:26.629Z,3.90
2023-09-17T12:49:56.404Z,3.50
2023-09-17T12:52:24.407Z,3.90
2023-09-17T12:54:55.216Z,3.90
2023-09-17T12:57:24.150Z,3.30
2023-09-17T12:59:52.085Z,3.20
2023-09-17T13:02:20.961Z,3.10
2023-09-17T13:04:48.798Z,3.20
2023-09-17T13:07:24.577Z,3.40
2023-09-17T13:09:57.915Z,2.70
2023-09-17T13:12:25.758Z,2.90
2023-09-17T13:14:53.823Z,3.20
2023-09-17T13:17:22.370Z,2.90
2023-09-17T13:19:50.519Z,3.40
2023-09-17T13:22:19.381Z,4.50
2023-09-17T13:24:47.560Z,3.50
2023-09-17T13:27:19.060Z,3.30
2023-09-17T13:29:51.460Z,4.70
2023-09-17T13:32:20.133Z,3.50
2023-09-17T13:34:48.846Z,3.20
2023-09-17T13:37:16.804Z,3.80
2023-09-17T13:39:51.105Z,3.20
2023-09-17T13:42:19.087Z,3.70
2023-09-17T13:44:46.754Z,3.00
2023-09-17T13:47:14.545Z,3.30
2023-09-17T13:49:42.689Z,3.10
2023-09-17T13:52:11.006Z,14.00
2023-09-17T13:54:40.442Z,4.80
2023-09-17T13:57:08.505Z,5.10
2023-09-17T13:59:36.224Z,6.40
2023-09-17T14:02:05.400Z,5.00
2023-09-17T14:04:34.858Z,3.60
2023-09-17T14:07:03.076Z,3.30
2023-09-17T14:09:30.744Z,3.50
2023-09-17T14:11:58.390Z,3.30
2023-09-17T14:14:26.050Z,3.80
2023-09-17T14:16:53.777Z,3.40
2023-09-17T14:19:21.705Z,3.40
2023-09-17T14:21:49.381Z,3.50
2023-09-17T14:24:17.209Z,3.50
2023-09-17T14:26:45.234Z,3.20
2023-09-17T14:29:13.331Z,3.50
2023-09-17T14:31:43.781Z,4.20
2023-09-17T14:34:12.349Z,3.70
2023-09-17T14:36:40.121Z,3.30
2023-09-17T14:39:09.968Z,3.60
2023-09-17T14:41:39.537Z,3.50
2023-09-17T14:44:07.707Z,3.50
2023-09-17T14:46:39.688Z,3.70
2023-09-17T14:49:08.084Z,3.70
2023-09-17T14:51:36.055Z,3.60
2023-09-17T14:54:04.443Z,3.90
2023-09-17T14:56:32.166Z,4.20
2023-09-17T14:58:59.849Z,4.60
2023-09-17T15:01:53.087Z,4.20
2023-09-17T15:04:16.256Z,4.40
2023-09-17T15:06:44.211Z,6.10
2023-09-17T15:09:11.877Z,5.00
2023-09-17T15:11:39.532Z,5.30
2023-09-17T15:14:07.224Z,5.00
2023-09-17T15:16:34.939Z,5.60
2023-09-17T15:19:03.029Z,4.90
2023-09-17T15:21:30.785Z,6.90
2023-09-17T15:23:58.769Z,7.30
2023-09-17T15:26:27.648Z,7.30
2023-09-17T15:28:55.700Z,8.80
2023-09-17T15:31:23.480Z,11.10
2023-09-17T15:33:55.184Z,12.20
2023-09-17T15:36:22.905Z,9.90
2023-09-17T15:38:50.840Z,9.10
2023-09-17T15:41:18.987Z,9.50
2023-09-17T15:43:46.716Z,8.20
2023-09-17T15:46:14.386Z,9.20
2023-09-17T15:48:42.028Z,8.10
2023-09-17T15:51:11.222Z,7.50
2023-09-17T15:53:38.885Z,7.80
2023-09-17T15:56:06.574Z,7.90
2023-09-17T15:58:34.413Z,7.90
2023-09-17T16:01:02.067Z,8.50
2023-09-17T16:03:30.905Z,14.60
2023-09-17T16:05:58.721Z,21.90
2023-09-17T16:08:26.465Z,12.50
2023-09-17T16:10:54.692Z,11.90
2023-09-17T16:13:22.937Z,13.70
2023-09-17T16:15:52.118Z,16.10
2023-09-17T16:18:19.789Z,13.90
2023-09-17T16:20:47.347Z,11.30
2023-09-17T16:23:15.524Z,11.10
2023-09-17T16:25:43.308Z,12.40
2023-09-17T16:28:11.252Z,10.90
2023-09-17T16:30:39.531Z,11.20
2023-09-17T16:33:07.281Z,11.70
2023-09-17T16:35:35.670Z,14.20
2023-09-17T16:38:04.017Z,15.00
2023-09-17T16:40:33.043Z,13.60
2023-09-17T16:43:09.459Z,16.00
2023-09-17T16:45:38.808Z,13.60
2023-09-17T16:48:06.599Z,15.30
2023-09-17T16:50:34.434Z,16.40
2023-09-17T16:53:02.148Z,16.20
2023-09-17T16:55:30.077Z,18.40
2023-09-17T16:57:57.927Z,16.70
2023-09-17T17:00:25.597Z,19.40
2023-09-17T17:02:53.437Z,20.00
2023-09-17T17:05:21.357Z,19.50
2023-09-17T17:07:49.130Z,16.20
2023-09-17T17:10:17.073Z,18.70
2023-09-17T17:12:44.721Z,19.10
2023-09-17T17:15:12.703Z,19.10
2023-09-17T17:17:40.380Z,19.50
2023-09-17T17:20:09.010Z,15.80
2023-09-17T17:22:44.185Z,16.80
2023-09-17T17:25:11.934Z,14.80
2023-09-17T17:27:39.599Z,9.10
2023-09-17T17:30:08.152Z,11.80
2023-09-17T17:32:35.777Z,13.70
2023-09-17T17:35:04.514Z,13.50
2023-09-17T17:37:32.195Z,13.90
2023-09-17T17:39:59.948Z,16.40
2023-09-17T17:42:27.719Z,16.80
2023-09-17T17:44:55.996Z,16.70
2023-09-17T17:47:24.571Z,15.70
2023-09-17T17:49:54.710Z,15.70
2023-09-17T17:52:22.555Z,17.60
2023-09-17T17:54:50.220Z,17.00
2023-09-17T17:57:20.364Z,18.60
2023-09-17T17:59:48.117Z,19.60
2023-09-17T18:02:15.986Z,17.70
2023-09-17T18:04:43.893Z,18.00
2023-09-17T18:07:15.486Z,18.80
2023-09-17T18:09:43.558Z,23.20
2023-09-17T18:12:11.225Z,31.10
2023-09-17T18:14:38.980Z,46.50
2023-09-17T18:17:06.702Z,40.50
2023-09-17T18:19:34.401Z,37.40
2023-09-17T18:22:02.167Z,41.40
2023-09-17T18:24:30.031Z,43.60
2023-09-17T18:26:57.898Z,53.10
2023-09-17T18:29:28.910Z,58.30
2023-09-17T18:31:57.531Z,20.60
2023-09-17T18:34:25.308Z,21.40
2023-09-17T18:36:55.392Z,12.90
2023-09-17T18:39:23.178Z,12.30
2023-09-17T18:41:50.829Z,11.70
2023-09-17T18:44:19.066Z,10.50
2023-09-17T18:46:46.857Z,8.30
2023-09-17T18:49:19.951Z,8.90
2023-09-17T18:51:47.968Z,10.90
2023-09-17T18:54:15.893Z,14.10
2023-09-17T18:56:44.072Z,13.10
2023-09-17T18:59:11.877Z,15.90
2023-09-17T19:01:41.080Z,14.40
2023-09-17T19:04:09.387Z,11.90
2023-09-17T19:06:37.269Z,10.80
2023-09-17T19:09:07.027Z,10.40
2023-09-17T19:11:35.374Z,9.40
2023-09-17T19:14:03.423Z,8.20
2023-09-17T19:16:31.262Z,8.10
2023-09-17T19:18:59.057Z,9.40
2023-09-17T19:21:26.829Z,9.00
2023-09-17T19:23:55.175Z,7.60
2023-09-17T19:26:23.246Z,9.00
2023-09-17T19:28:51.087Z,10.40
2023-09-17T19:31:19.048Z,11.30
2023-09-17T19:33:47.480Z,11.70
2023-09-17T19:36:15.240Z,12.10
2023-09-17T19:38:43.003Z,13.90
2023-09-17T19:41:11.358Z,15.20
2023-09-17T19:43:39.251Z,17.40
2023-09-17T19:46:06.924Z,19.30
2023-09-17T19:48:34.785Z,21.50
2023-09-17T19:51:02.450Z,22.70
2023-09-17T19:53:30.517Z,21.00
2023-09-17T19:55:58.116Z,19.80
2023-09-17T19:58:25.840Z,22.00
2023-09-17T20:00:53.502Z,21.30
2023-09-17T20:03:24.742Z,19.20
2023-09-17T20:05:53.329Z,19.30
2023-09-17T20:08:21.443Z,20.20
2023-09-17T20:10:49.197Z,21.10
2023-09-17T20:13:17.851Z,21.80
2023-09-17T20:15:51.493Z,22.30
2023-09-17T20:18:19.213Z,23.60
2023-09-17T20:20:50.460Z,23.40
2023-09-17T20:23:18.574Z,21.70
2023-09-17T20:25:48.166Z,24.60
2023-09-17T20:28:19.553Z,26.10
2023-09-17T20:30:52.300Z,23.80
2023-09-17T20:33:22.037Z,21.70
2023-09-17T20:35:50.555Z,22.40
2023-09-17T20:38:18.806Z,20.00
2023-09-17T20:40:46.494Z,21.10
2023-09-17T20:43:14.463Z,19.40
2023-09-17T20:45:42.394Z,19.70
2023-09-17T20:48:10.364Z,21.70
2023-09-17T20:50:38.006Z,19.50
2023-09-17T20:53:05.645Z,17.20
2023-09-17T20:55:33.284Z,18.90
2023-09-17T20:58:00.938Z,15.80
2023-09-17T21:00:28.601Z,16.90
2023-09-17T21:02:58.516Z,15.80
2023-09-17T21:05:26.804Z,16.60
2023-09-17T21:07:54.487Z,17.40
2023-09-17T21:10:22.725Z,16.70
2023-09-17T21:12:51.541Z,18.70
2023-09-17T21:15:19.193Z,19.40
2023-09-17T21:17:46.847Z,18.50
2023-09-17T21:20:20.552Z,18.20
2023-09-17T21:22:49.585Z,16.80
2023-09-17T21:25:17.816Z,16.50
2023-09-17T21:27:45.571Z,16.80
2023-09-17T21:30:13.530Z,16.70
2023-09-17T21:32:42.699Z,17.50
2023-09-17T21:35:11.742Z,16.90
2023-09-17T21:37:39.721Z,16.70
2023-09-17T21:40:08.059Z,16.30
2023-09-17T21:42:36.930Z,15.30
2023-09-17T21:45:05.547Z,15.40
2023-09-17T21:47:33.262Z,16.70
2023-09-17T21:50:01.799Z,16.20
2023-09-17T21:52:30.879Z,15.50
2023-09-17T21:54:58.660Z,15.00
2023-09-17T21:57:26.536Z,14.90
2023-09-17T21:59:54.264Z,14.00
2023-09-17T22:02:22.017Z,15.00
2023-09-17T22:41:48.603Z,14.80
2023-09-17T22:44:24.447Z,14.50
2023-09-17T22:46:53.018Z,14.40
2023-09-17T22:49:20.902Z,13.90
2023-09-17T22:54:25.898Z,14.00
2023-09-17T22:56:54.022Z,13.50
2023-09-17T22:59:21.961Z,12.30
2023-09-17T23:01:49.593Z,12.50
2023-09-17T23:04:17.314Z,13.90
2023-09-17T23:06:44.977Z,14.10
2023-09-17T23:09:12.758Z,13.10
2023-09-17T23:11:40.500Z,12.70
2023-09-17T23:14:09.789Z,12.70
2023-09-17T23:16:37.695Z,12.90
2023-09-17T23:19:08.504Z,13.20
2023-09-17T23:21:36.777Z,13.00
2023-09-17T23:24:05.164Z,12.20
2023-09-17T23:26:33.207Z,12.40
2023-09-17T23:29:02.693Z,12.20
2023-09-17T23:31:31.469Z,14.50
2023-09-17T23:33:59.172Z,14.00
2023-09-17T23:36:28.788Z,12.40
2023-09-17T23:38:57.067Z,12.80
2023-09-17T23:41:25.239Z,12.40
2023-09-17T23:43:53.033Z,12.20
2023-09-17T23:46:23.403Z,12.80
2023-09-17T23:48:51.463Z,12.80
2023-09-17T23:51:19.468Z,14.10
2023-09-17T23:53:47.025Z,13.80
2023-09-17T23:56:15.476Z,13.00
2023-09-17T23:58:43.270Z,13.20
